createdAt,value
2022-09-07T00:01:12.181Z,3.85
2022-09-07T00:03:40.429Z,3.53
2022-09-07T00:06:12.349Z,3.79
2022-09-07T00:08:43.984Z,3.85
2022-09-07T00:11:16.849Z,3.82
2022-09-07T00:13:48.202Z,3.74
2022-09-07T00:16:24.402Z,3.64
2022-09-07T00:19:01.453Z,3.53
2022-09-07T00:21:30.402Z,3.50
2022-09-07T00:23:58.910Z,3.40
2022-09-07T00:26:31.368Z,3.41
2022-09-07T00:29:02.150Z,3.38
2022-09-07T00:31:31.525Z,3.40
2022-09-07T00:34:01.959Z,3.38
2022-09-07T00:36:30.516Z,3.35
2022-09-07T00:38:58.851Z,3.33
2022-09-07T00:41:27.496Z,3.31
2022-09-07T00:44:17.926Z,3.17
2022-09-07T00:46:47.182Z,3.25
2022-09-07T00:49:22.688Z,2.68
2022-09-07T00:51:59.693Z,3.09
2022-09-07T00:54:46.053Z,2.85
2022-09-07T00:57:14.799Z,2.92
2022-09-07T00:59:51.685Z,2.95
2022-09-07T01:02:20.549Z,2.75
2022-09-07T01:05:00.188Z,2.90
2022-09-07T01:07:28.441Z,2.94
2022-09-07T01:09:57.300Z,2.35
2022-09-07T01:12:25.376Z,2.87
2022-09-07T01:14:56.779Z,2.84
2022-09-07T01:17:39.584Z,2.78
2022-09-07T01:20:35.484Z,2.73
2022-09-07T01:23:48.991Z,2.68
2022-09-07T01:27:22.563Z,2.80
2022-09-07T01:30:17.948Z,2.82
2022-09-07T01:33:07.728Z,2.80
2022-09-07T01:35:53.691Z,2.89
2022-09-07T01:39:00.030Z,2.98
2022-09-07T01:41:56.057Z,2.83
2022-09-07T01:44:29.592Z,2.74
2022-09-07T01:47:15.224Z,2.64
2022-09-07T01:50:00.476Z,2.55
2022-09-07T01:52:41.229Z,2.46
2022-09-07T01:55:47.971Z,2.33
2022-09-07T01:59:04.506Z,2.24
2022-09-07T02:01:45.121Z,2.15
2022-09-07T02:04:31.656Z,2.13
2022-09-07T02:07:09.307Z,2.13
2022-09-07T02:10:01.034Z,2.09
2022-09-07T02:12:45.360Z,1.54
2022-09-07T02:15:27.226Z,2.07
2022-09-07T02:18:04.409Z,2.07
2022-09-07T02:20:38.237Z,2.12
2022-09-07T02:23:17.519Z,1.87
2022-09-07T02:26:15.816Z,2.07
2022-09-07T02:28:44.094Z,1.99
2022-09-07T02:31:12.247Z,1.90
2022-09-07T02:33:41.155Z,1.84
2022-09-07T02:36:12.404Z,1.83
2022-09-07T02:38:40.569Z,1.48
2022-09-07T02:41:29.621Z,1.17
2022-09-07T02:43:57.930Z,0.99
2022-09-07T02:47:02.955Z,1.81
2022-09-07T02:50:30.950Z,1.78
2022-09-07T02:53:26.059Z,1.74
2022-09-07T02:56:31.048Z,1.64
2022-09-07T02:59:34.494Z,1.55
2022-09-07T03:02:19.276Z,1.50
2022-09-07T03:05:27.474Z,1.52
2022-09-07T03:08:05.731Z,1.50
2022-09-07T03:10:34.876Z,1.46
2022-09-07T03:13:02.943Z,1.44
2022-09-07T03:15:31.052Z,1.38
2022-09-07T03:17:59.247Z,1.43
2022-09-07T03:20:27.182Z,1.16
2022-09-07T03:22:55.069Z,1.24
2022-09-07T03:25:23.454Z,1.54
2022-09-07T03:27:51.746Z,1.15
2022-09-07T03:30:19.827Z,1.06
2022-09-07T03:32:48.212Z,1.46
2022-09-07T03:35:16.479Z,1.11
2022-09-07T03:37:44.687Z,1.26
2022-09-07T03:40:15.518Z,1.44
2022-09-07T03:42:44.065Z,1.18
2022-09-07T03:45:12.090Z,1.42
2022-09-07T03:47:40.713Z,1.41
2022-09-07T03:50:09.251Z,1.22
2022-09-07T03:52:38.046Z,1.31
2022-09-07T03:55:06.910Z,1.30
2022-09-07T03:57:34.893Z,1.34
2022-09-07T04:00:05.043Z,1.15
2022-09-07T04:02:40.827Z,0.95
2022-09-07T04:05:09.475Z,1.44
2022-09-07T04:07:37.338Z,1.41
2022-09-07T04:10:05.709Z,1.39
2022-09-07T04:12:33.628Z,1.33
2022-09-07T04:15:01.493Z,1.33
2022-09-07T04:17:29.680Z,1.39
2022-09-07T04:19:57.547Z,1.50
2022-09-07T04:22:25.421Z,1.26
2022-09-07T04:24:53.703Z,1.61
2022-09-07T04:27:21.627Z,1.29
2022-09-07T04:29:49.547Z,1.60
2022-09-07T04:32:17.916Z,1.67
2022-09-07T04:34:45.792Z,1.47
2022-09-07T04:37:14.508Z,1.50
2022-09-07T04:39:42.922Z,2.03
2022-09-07T04:42:11.001Z,2.14
2022-09-07T04:44:38.936Z,2.24
2022-09-07T04:47:07.363Z,2.32
2022-09-07T04:49:35.670Z,2.52
2022-09-07T04:52:03.756Z,2.24
2022-09-07T04:54:33.477Z,2.89
2022-09-07T04:57:02.293Z,3.14
2022-09-07T04:59:30.210Z,3.64
2022-09-07T05:01:58.587Z,3.93
2022-09-07T05:04:26.543Z,4.70
2022-09-07T05:06:54.949Z,5.30
2022-09-07T05:09:23.222Z,5.80
2022-09-07T05:11:51.702Z,6.15
2022-09-07T05:14:20.162Z,6.49
2022-09-07T05:16:48.385Z,7.06
2022-09-07T05:19:16.591Z,7.21
2022-09-07T05:21:44.474Z,7.74
2022-09-07T05:24:12.573Z,8.09
2022-09-07T05:26:40.478Z,8.05
2022-09-07T05:31:57.516Z,8.67
2022-09-07T05:36:57.109Z,9.24
2022-09-07T05:39:25.469Z,9.57
2022-09-07T05:41:53.943Z,9.66
2022-09-07T05:47:11.442Z,10.26
2022-09-07T05:49:39.591Z,10.49
2022-09-07T05:52:07.665Z,10.78
2022-09-07T05:54:35.704Z,10.80
2022-09-07T05:57:04.027Z,11.18
2022-09-07T05:59:31.997Z,11.32
2022-09-07T06:02:00.816Z,11.52
2022-09-07T06:04:29.170Z,11.84
2022-09-07T06:12:33.391Z,12.38
2022-09-07T06:15:01.912Z,12.41
2022-09-07T06:17:31.205Z,12.65
2022-09-07T06:19:59.229Z,12.98
2022-09-07T06:22:30.761Z,13.20
2022-09-07T06:24:59.637Z,13.09
2022-09-07T06:27:28.307Z,13.39
2022-09-07T06:29:56.741Z,13.71
2022-09-07T06:35:14.828Z,13.78
2022-09-07T06:37:43.146Z,13.57
2022-09-07T06:40:12.594Z,13.91
2022-09-07T06:42:41.021Z,14.24
2022-09-07T06:45:11.682Z,14.40
2022-09-07T06:47:40.629Z,14.72
2022-09-07T06:50:10.035Z,14.60
2022-09-07T06:55:28.806Z,14.76
2022-09-07T06:57:57.185Z,15.11
2022-09-07T07:00:25.217Z,15.11
2022-09-07T07:02:53.920Z,15.29
2022-09-07T07:05:21.889Z,14.96
2022-09-07T07:07:49.799Z,15.14
2022-09-07T07:10:22.136Z,15.27
2022-09-07T07:12:57.581Z,15.68
2022-09-07T07:15:28.861Z,15.79
2022-09-07T07:18:02.533Z,15.46
2022-09-07T07:20:39.671Z,15.91
2022-09-07T07:23:08.351Z,16.03
2022-09-07T07:25:36.384Z,16.30
2022-09-07T07:31:04.935Z,16.59
2022-09-07T07:33:36.545Z,16.09
2022-09-07T07:36:34.088Z,16.37
2022-09-07T07:39:04.545Z,16.58
2022-09-07T07:44:21.326Z,16.97
2022-09-07T07:46:50.930Z,16.96
2022-09-07T07:49:19.705Z,17.26
2022-09-07T07:54:38.766Z,17.26
2022-09-07T07:57:07.229Z,16.91
2022-09-07T07:59:35.814Z,16.65
2022-09-07T08:02:06.856Z,17.24
2022-09-07T08:04:36.051Z,18.01
2022-09-07T08:07:09.638Z,17.71
2022-09-07T08:09:41.082Z,17.76
2022-09-07T08:12:16.806Z,17.87
2022-09-07T08:14:46.843Z,17.74
2022-09-07T08:17:17.804Z,18.28
2022-09-07T08:19:45.995Z,18.42
2022-09-07T08:22:14.157Z,18.52
2022-09-07T08:24:42.168Z,18.25
2022-09-07T08:27:10.799Z,18.38
2022-09-07T08:29:39.138Z,19.01
2022-09-07T08:32:07.180Z,18.68
2022-09-07T08:34:38.277Z,19.12
2022-09-07T08:37:06.379Z,18.99
2022-09-07T08:39:34.185Z,19.16
2022-09-07T08:42:38.897Z,19.58
2022-09-07T08:45:14.918Z,19.05
2022-09-07T08:47:49.396Z,19.13
2022-09-07T08:50:33.885Z,18.84
2022-09-07T08:53:18.682Z,18.92
2022-09-07T08:55:56.249Z,19.06
2022-09-07T09:01:41.152Z,19.36
2022-09-07T09:04:27.671Z,19.42
2022-09-07T09:07:08.858Z,20.03
2022-09-07T09:10:34.103Z,20.42
2022-09-07T09:13:45.558Z,20.40
2022-09-07T09:16:35.631Z,19.61
2022-09-07T09:19:30.873Z,19.78
2022-09-07T09:22:26.942Z,20.13
2022-09-07T09:25:34.774Z,20.75
2022-09-07T09:28:03.463Z,20.63
2022-09-07T09:30:31.705Z,20.06
2022-09-07T09:33:29.099Z,19.66
2022-09-07T09:36:01.316Z,19.33
2022-09-07T09:38:34.305Z,20.09
2022-09-07T09:41:12.433Z,20.74
2022-09-07T09:44:03.733Z,21.36
2022-09-07T09:46:37.666Z,21.42
2022-09-07T09:49:23.983Z,21.51
2022-09-07T09:54:54.052Z,21.80
2022-09-07T10:06:22.760Z,21.89
2022-09-07T10:09:01.967Z,21.30
2022-09-07T10:14:45.469Z,21.48
2022-09-07T10:17:41.916Z,22.38
2022-09-07T10:20:20.557Z,22.68
2022-09-07T10:22:59.892Z,22.96
2022-09-07T10:25:36.468Z,23.14
2022-09-07T10:28:15.484Z,23.41
2022-09-07T10:31:32.065Z,23.11
2022-09-07T10:37:17.816Z,23.03
2022-09-07T10:40:06.762Z,22.51
2022-09-07T10:43:20.477Z,23.39
2022-09-07T10:46:08.059Z,22.77
2022-09-07T10:49:07.247Z,22.84
2022-09-07T10:51:53.314Z,23.45
2022-09-07T10:54:53.878Z,23.46
2022-09-07T10:57:30.696Z,23.75
2022-09-07T11:00:22.785Z,23.75
2022-09-07T11:03:28.408Z,24.11
2022-09-07T11:06:18.279Z,23.11
2022-09-07T11:09:16.497Z,23.66
2022-09-07T11:12:26.044Z,23.75
2022-09-07T11:15:08.126Z,23.16
2022-09-07T11:18:03.399Z,23.32
2022-09-07T11:20:59.226Z,23.49
2022-09-07T11:24:11.415Z,22.64
2022-09-07T11:26:51.339Z,24.08
2022-09-07T11:29:37.418Z,23.25
2022-09-07T11:32:38.167Z,23.16
2022-09-07T11:35:25.206Z,21.43
2022-09-07T11:37:59.936Z,22.68
2022-09-07T11:40:33.986Z,22.83
2022-09-07T11:43:27.407Z,23.93
2022-09-07T11:46:11.447Z,23.05
2022-09-07T11:48:55.280Z,24.00
2022-09-07T11:51:55.543Z,24.42
2022-09-07T11:54:57.814Z,24.39
2022-09-07T11:57:54.890Z,24.69
2022-09-07T12:01:15.940Z,23.88
2022-09-07T12:04:05.492Z,23.27
2022-09-07T12:07:08.736Z,24.53
2022-09-07T12:10:01.400Z,25.30
2022-09-07T12:13:15.271Z,25.80
2022-09-07T12:16:15.972Z,24.31
2022-09-07T12:19:01.421Z,25.10
2022-09-07T12:21:47.432Z,25.95
2022-09-07T12:24:40.413Z,24.10
2022-09-07T12:27:20.511Z,25.39
2022-09-07T12:29:58.120Z,25.18
2022-09-07T12:33:06.167Z,26.04
2022-09-07T12:35:34.137Z,26.39
2022-09-07T12:38:17.968Z,26.47
2022-09-07T12:41:00.187Z,25.65
2022-09-07T12:43:48.186Z,25.23
2022-09-07T12:46:46.645Z,25.93
2022-09-07T12:50:12.163Z,25.90
2022-09-07T12:53:13.768Z,26.33
2022-09-07T12:56:18.007Z,25.48
2022-09-07T12:59:06.581Z,25.58
2022-09-07T13:01:46.304Z,26.23
2022-09-07T13:04:48.107Z,25.31
2022-09-07T13:07:37.936Z,26.12
2022-09-07T13:10:34.286Z,26.27
2022-09-07T13:19:46.400Z,26.32
2022-09-07T13:22:37.530Z,26.35
2022-09-07T13:25:26.456Z,25.59
2022-09-07T13:28:14.416Z,25.44
2022-09-07T13:31:06.137Z,26.02
2022-09-07T13:33:52.062Z,26.88
2022-09-07T13:36:36.818Z,27.33
2022-09-07T13:39:12.963Z,27.41
2022-09-07T13:41:49.223Z,27.35
2022-09-07T13:44:26.615Z,27.22
2022-09-07T13:47:29.953Z,27.08
2022-09-07T13:50:04.776Z,26.18
2022-09-07T13:53:10.945Z,26.03
2022-09-07T13:56:11.215Z,25.79
2022-09-07T13:58:46.479Z,25.87
2022-09-07T14:01:19.135Z,25.34
2022-09-07T14:04:00.151Z,25.81
2022-09-07T14:06:33.072Z,26.02
2022-09-07T14:09:21.384Z,26.16
2022-09-07T14:11:54.605Z,25.22
2022-09-07T14:14:25.078Z,25.11
2022-09-07T14:16:59.421Z,25.47
2022-09-07T14:19:48.838Z,25.12
2022-09-07T14:22:20.796Z,25.41
2022-09-07T14:25:04.615Z,25.09
2022-09-07T14:27:37.212Z,25.65
2022-09-07T14:30:24.701Z,25.85
2022-09-07T14:32:56.391Z,25.94
2022-09-07T14:35:37.073Z,25.59
2022-09-07T14:41:19.124Z,25.29
2022-09-07T14:43:57.065Z,25.26
2022-09-07T14:46:33.306Z,25.91
2022-09-07T14:49:18.827Z,26.07
2022-09-07T14:51:48.438Z,25.42
2022-09-07T14:54:33.002Z,25.28
2022-09-07T14:57:33.087Z,25.75
2022-09-07T15:01:37.141Z,24.72
2022-09-07T15:04:02.141Z,25.16
2022-09-07T15:09:35.399Z,25.13
2022-09-07T15:12:38.119Z,25.25
2022-09-07T15:15:37.171Z,25.30
2022-09-07T15:18:46.958Z,25.02
2022-09-07T15:21:14.976Z,24.49
2022-09-07T15:23:43.048Z,24.28
2022-09-07T15:27:02.024Z,24.04
2022-09-07T15:29:15.250Z,23.87
2022-09-07T15:31:49.871Z,23.85
2022-09-07T15:34:25.198Z,24.00
2022-09-07T15:36:56.355Z,23.65
2022-09-07T15:39:30.123Z,23.63
2022-09-07T15:42:00.515Z,23.51
2022-09-07T15:44:46.694Z,23.69
2022-09-07T15:50:03.533Z,23.41
2022-09-07T15:52:33.886Z,23.31
2022-09-07T15:55:01.900Z,23.00
2022-09-07T16:00:20.160Z,22.83
2022-09-07T16:03:06.209Z,22.74
2022-09-07T16:05:35.145Z,22.49
2022-09-07T16:10:54.308Z,22.40
2022-09-07T16:13:24.438Z,22.25
2022-09-07T16:15:53.147Z,22.15
2022-09-07T16:18:21.202Z,21.78
2022-09-07T16:20:52.653Z,21.45
2022-09-07T16:23:21.094Z,21.19
2022-09-07T16:26:00.525Z,20.85
2022-09-07T16:28:29.435Z,20.48
2022-09-07T16:30:57.751Z,20.17
2022-09-07T16:33:33.040Z,20.06
2022-09-07T16:36:12.028Z,19.77
2022-09-07T16:38:44.016Z,19.23
2022-09-07T16:41:20.545Z,19.25
2022-09-07T16:43:57.162Z,19.10
2022-09-07T16:46:30.910Z,18.84
2022-09-07T16:48:59.315Z,18.69
2022-09-07T16:51:28.771Z,18.62
2022-09-07T16:53:58.991Z,18.28
2022-09-07T16:56:30.232Z,18.17
2022-09-07T16:59:03.054Z,17.87
2022-09-07T17:01:34.888Z,17.68
2022-09-07T17:04:08.008Z,17.24
2022-09-07T17:06:39.712Z,16.97
2022-09-07T17:09:08.114Z,17.04
2022-09-07T17:11:38.628Z,16.73
2022-09-07T17:14:07.707Z,16.46
2022-09-07T17:16:41.137Z,16.31
2022-09-07T17:22:01.587Z,15.96
2022-09-07T17:24:32.284Z,15.79
2022-09-07T17:27:01.549Z,15.59
2022-09-07T17:29:33.898Z,15.53
2022-09-07T17:34:55.627Z,15.17
2022-09-07T17:37:23.688Z,14.89
2022-09-07T17:39:52.194Z,14.82
2022-09-07T17:42:20.689Z,14.74
2022-09-07T17:44:52.756Z,14.48
2022-09-07T17:47:21.673Z,14.49
2022-09-07T17:49:49.707Z,14.33
2022-09-07T17:52:17.665Z,14.14
2022-09-07T17:54:45.909Z,14.06
2022-09-07T17:57:13.966Z,13.97
2022-09-07T18:03:03.496Z,13.69
2022-09-07T18:05:33.911Z,13.53
2022-09-07T18:08:02.885Z,13.19
2022-09-07T18:13:33.572Z,13.24
2022-09-07T18:16:19.409Z,13.11
2022-09-07T18:18:48.347Z,12.97
2022-09-07T18:21:24.278Z,12.78
2022-09-07T18:23:59.527Z,12.64
2022-09-07T18:26:27.979Z,12.54
2022-09-07T18:29:04.302Z,12.54
2022-09-07T18:31:32.854Z,12.47
2022-09-07T18:34:01.857Z,12.24
2022-09-07T18:36:30.295Z,12.28
2022-09-07T18:39:03.398Z,12.19
2022-09-07T18:41:34.913Z,12.11
2022-09-07T18:44:03.811Z,12.03
2022-09-07T18:46:32.119Z,11.62
2022-09-07T18:49:00.078Z,11.93
2022-09-07T18:51:30.284Z,11.60
2022-09-07T18:53:59.107Z,11.84
2022-09-07T18:56:27.136Z,11.73
2022-09-07T18:58:58.287Z,11.49
2022-09-07T19:01:26.547Z,11.60
2022-09-07T19:03:57.037Z,11.68
2022-09-07T19:06:26.494Z,11.58
2022-09-07T19:08:56.606Z,11.53
2022-09-07T19:11:26.229Z,11.52
2022-09-07T19:14:05.509Z,11.43
2022-09-07T19:16:35.534Z,11.39
2022-09-07T19:19:07.605Z,11.28
2022-09-07T19:21:40.647Z,11.16
2022-09-07T19:24:15.427Z,11.14
2022-09-07T19:26:47.882Z,11.14
2022-09-07T19:29:19.633Z,11.06
2022-09-07T19:32:04.444Z,10.71
2022-09-07T19:34:42.730Z,10.92
2022-09-07T19:37:13.465Z,10.63
2022-09-07T19:39:41.450Z,10.80
2022-09-07T19:42:10.552Z,10.70
2022-09-07T19:44:38.648Z,10.62
2022-09-07T19:47:07.214Z,10.30
2022-09-07T19:49:35.696Z,9.94
2022-09-07T19:52:04.351Z,10.36
2022-09-07T19:54:32.762Z,10.04
2022-09-07T19:57:02.930Z,10.20
2022-09-07T19:59:31.133Z,10.17
2022-09-07T20:01:59.356Z,10.16
2022-09-07T20:04:28.874Z,9.80
2022-09-07T20:06:57.636Z,10.17
2022-09-07T20:09:26.067Z,10.02
2022-09-07T20:11:54.382Z,9.09
2022-09-07T20:14:22.761Z,9.54
2022-09-07T20:16:50.978Z,9.73
2022-09-07T20:19:19.970Z,9.68
2022-09-07T20:21:49.314Z,9.60
2022-09-07T20:24:22.381Z,9.51
2022-09-07T20:26:52.076Z,9.37
2022-09-07T20:29:28.889Z,9.39
2022-09-07T20:32:01.583Z,9.43
2022-09-07T20:34:30.121Z,9.32
2022-09-07T20:36:59.172Z,9.29
2022-09-07T20:39:27.948Z,9.22
2022-09-07T20:41:56.037Z,9.17
2022-09-07T20:44:24.203Z,8.91
2022-09-07T20:46:57.365Z,9.11
2022-09-07T20:49:27.064Z,9.16
2022-09-07T20:51:54.978Z,9.16
2022-09-07T20:54:22.993Z,9.16
2022-09-07T20:56:51.678Z,9.12
2022-09-07T20:59:21.967Z,9.07
2022-09-07T21:01:50.522Z,8.98
2022-09-07T21:04:18.644Z,8.91
2022-09-07T21:06:47.094Z,8.88
2022-09-07T21:09:15.220Z,8.74
2022-09-07T21:11:46.144Z,8.14
2022-09-07T21:14:17.982Z,8.45
2022-09-07T21:16:46.249Z,8.68
2022-09-07T21:19:14.207Z,8.37
2022-09-07T21:21:43.267Z,8.34
2022-09-07T21:24:23.209Z,8.36
2022-09-07T21:26:52.309Z,8.60
2022-09-07T21:29:25.825Z,8.52
2022-09-07T21:31:55.084Z,8.58
2022-09-07T21:34:24.157Z,8.54
2022-09-07T21:36:53.112Z,8.49
2022-09-07T21:39:22.226Z,8.44
2022-09-07T21:41:50.313Z,8.38
2022-09-07T21:44:18.477Z,8.33
2022-09-07T21:46:46.855Z,8.34
2022-09-07T21:49:14.834Z,7.98
2022-09-07T21:51:43.346Z,8.10
2022-09-07T21:54:11.605Z,7.93
2022-09-07T21:56:44.372Z,8.19
2022-09-07T21:59:14.839Z,7.36
2022-09-07T22:01:42.913Z,8.10
2022-09-07T22:04:11.026Z,8.05
2022-09-07T22:06:40.720Z,8.03
2022-09-07T22:09:10.662Z,8.00
2022-09-07T22:11:39.310Z,7.98
2022-09-07T22:14:13.378Z,7.96
2022-09-07T22:16:41.323Z,7.91
2022-09-07T22:19:09.407Z,7.86
2022-09-07T22:21:38.022Z,7.83
2022-09-07T22:24:08.004Z,7.56
2022-09-07T22:26:37.842Z,7.78
2022-09-07T22:29:08.561Z,7.76
2022-09-07T22:31:38.689Z,7.47
2022-09-07T22:34:09.518Z,7.71
2022-09-07T22:36:44.153Z,7.67
2022-09-07T22:39:18.791Z,7.57
2022-09-07T22:41:48.312Z,7.58
2022-09-07T22:44:18.728Z,7.00
2022-09-07T22:46:47.994Z,7.48
2022-09-07T22:49:17.447Z,7.45
2022-09-07T22:51:45.830Z,7.42
2022-09-07T22:54:13.999Z,7.29
2022-09-07T22:56:42.549Z,7.35
2022-09-07T22:59:12.034Z,7.34
2022-09-07T23:01:40.807Z,7.28
2022-09-07T23:04:10.280Z,7.20
2022-09-07T23:06:41.913Z,6.74
2022-09-07T23:09:14.091Z,7.11
2022-09-07T23:11:42.631Z,7.07
2022-09-07T23:14:20.666Z,6.92
2022-09-07T23:16:49.642Z,6.91
2022-09-07T23:19:19.888Z,6.86
2022-09-07T23:21:48.515Z,6.90
2022-09-07T23:24:19.039Z,6.80
2022-09-07T23:26:47.226Z,6.87
2022-09-07T23:29:15.764Z,6.86
2022-09-07T23:31:46.351Z,6.84
2022-09-07T23:34:14.299Z,6.81
2022-09-07T23:36:42.437Z,6.82
2022-09-07T23:39:11.155Z,6.57
2022-09-07T23:41:38.940Z,6.63
2022-09-07T23:44:07.175Z,6.98
2022-09-07T23:46:35.165Z,6.97
2022-09-07T23:49:03.200Z,6.88
2022-09-07T23:51:31.225Z,6.87
2022-09-07T23:53:59.565Z,6.81
2022-09-07T23:56:27.483Z,6.49
2022-09-07T23:58:55.442Z,6.75
